Bordentown, New Jersey
Current Conditions -  °F | °C
As of 1:53 AM on Saturday 29 Nov 2014 (Local Time) from KTTN Reporting Station
Clear Clear  
Wind Chill: 22°   Ceiling: Unl
Heat Index: 22°   Visibility: 10mi
Dew Point: 17°   Wind: 3mph
Humidity: 82%   Direction: 230°SW
Pressure: 30.31"   Gusts: NA
Location:  40.15°N, 74.71°W
Report Text: KTTN 290653Z AUTO 23003KT 10SM CLR M06/M08 A3031 RMK AO2 SLP259 T10561083
Loading
Personal Weather Stations






























Interactive Weather Map New forecast layout! Learn more

10-Day Weather Forecast

Advertisements
Track Severe Weather on mobile